Time;durP1;ratioP1;P1;durP2;ratioP2;P2;SDS_P1;SDS_P2;PMS_P1;PMS_P2;Temp;Humidity;BMP_temperature;BMP_pressure;BME280_temperature;BME280_humidity;BME280_pressure;Samples;Min_cycle;Max_cycle;Signal;HPM_P1;HPM_P2
2023/09/20 00:01:24;;;;;;;2.60;1.80;;;;;;;;;;4950435;29;20240;-77
2023/09/20 00:03:50;;;;;;;1.50;1.30;;;;;;;;;;4950577;28;20804;-77
2023/09/20 00:06:17;;;;;;;1.70;1.60;;;;;;;;;;4950044;28;20720;-77
2023/09/20 00:08:43;;;;;;;2.27;1.50;;;;;;;;;;4950126;29;20190;-77
2023/09/20 00:11:15;;;;;;;2.90;1.50;;;;;;;;;;4949567;29;20200;-77
2023/09/20 00:13:43;;;;;;;2.40;1.50;;;;;;;;;;4949211;28;20228;-77
2023/09/20 00:16:10;;;;;;;1.97;1.63;;;;;;;;;;4950246;29;20272;-77
2023/09/20 00:18:39;;;;;;;2.20;1.70;;;;;;;;;;4950038;28;20235;-77
2023/09/20 00:21:05;;;;;;;1.73;1.60;;;;;;;;;;4949660;28;20185;-77
2023/09/20 00:23:31;;;;;;;1.73;1.63;;;;;;;;;;4964743;28;20187;-77
2023/09/20 00:25:57;;;;;;;3.93;1.90;;;;;;;;;;4949187;29;20759;-77
2023/09/20 00:28:24;;;;;;;2.10;1.80;;;;;;;;;;4949801;28;20573;-77
2023/09/20 00:30:50;;;;;;;3.87;2.10;;;;;;;;;;4949745;29;20208;-76
2023/09/20 00:33:16;;;;;;;3.60;2.00;;;;;;;;;;4948440;29;20192;-77
2023/09/20 00:35:42;;;;;;;3.33;2.23;;;;;;;;;;4950194;29;20235;-77
2023/09/20 00:38:08;;;;;;;3.47;2.40;;;;;;;;;;4947677;29;20205;-77
2023/09/20 00:40:35;;;;;;;3.57;2.40;;;;;;;;;;4948722;29;20189;-77
2023/09/20 00:43:07;;;;;;;2.93;2.20;;;;;;;;;;4948581;29;21064;-77
2023/09/20 00:45:38;;;;;;;2.33;2.13;;;;;;;;;;4949818;29;20188;-77
2023/09/20 00:48:05;;;;;;;2.37;1.90;;;;;;;;;;4949837;28;20201;-77
2023/09/20 00:50:31;;;;;;;2.93;2.00;;;;;;;;;;4948445;29;20185;-77
2023/09/20 00:52:58;;;;;;;4.83;2.40;;;;;;;;;;4950276;29;20657;-77
2023/09/20 00:55:26;;;;;;;3.73;1.87;;;;;;;;;;4950247;28;20177;-77
2023/09/20 00:57:54;;;;;;;2.73;1.83;;;;;;;;;;4947807;29;20197;-77
2023/09/20 01:00:21;;;;;;;1.90;1.50;;;;;;;;;;4949977;28;20177;-77
2023/09/20 01:02:55;;;;;;;2.50;1.70;;;;;;;;;;4948650;29;20273;-76
2023/09/20 01:05:22;;;;;;;2.50;1.80;;;;;;;;;;4964856;28;20539;-76
2023/09/20 01:07:50;;;;;;;1.80;1.70;;;;;;;;;;4934396;29;20295;-76
2023/09/20 01:10:18;;;;;;;1.50;1.40;;;;;;;;;;4951830;28;20182;-76
2023/09/20 01:12:44;;;;;;;2.33;1.57;;;;;;;;;;4934475;29;20182;-76
2023/09/20 01:15:10;;;;;;;1.90;1.37;;;;;;;;;;4950921;28;20185;-76
2023/09/20 01:17:46;;;;;;;1.80;1.70;;;;;;;;;;4951104;29;20713;-76
2023/09/20 01:20:13;;;;;;;3.53;1.50;;;;;;;;;;4950214;29;20252;-76
2023/09/20 01:22:40;;;;;;;3.00;1.40;;;;;;;;;;4950897;28;20665;-76
2023/09/20 01:25:11;;;;;;;2.80;1.80;;;;;;;;;;4951810;28;20194;-76
2023/09/20 01:27:38;;;;;;;3.33;1.60;;;;;;;;;;4951611;29;20247;-76
2023/09/20 01:30:05;;;;;;;1.53;1.40;;;;;;;;;;4955244;28;20178;-76
2023/09/20 01:32:31;;;;;;;2.53;1.50;;;;;;;;;;4969330;28;20278;-76
2023/09/20 01:34:58;;;;;;;3.00;1.60;;;;;;;;;;4954977;29;20192;-76
2023/09/20 01:37:24;;;;;;;1.87;1.50;;;;;;;;;;4955074;29;20224;-76
2023/09/20 01:39:50;;;;;;;2.43;1.50;;;;;;;;;;4954677;28;20724;-76
2023/09/20 01:42:17;;;;;;;2.70;1.70;;;;;;;;;;4954666;29;20257;-76
2023/09/20 01:44:43;;;;;;;3.37;1.60;;;;;;;;;;4954739;29;20215;-76
2023/09/20 01:47:10;;;;;;;2.00;1.73;;;;;;;;;;4951078;29;20300;-76
2023/09/20 01:49:36;;;;;;;3.00;1.70;;;;;;;;;;4951076;29;20181;-76
2023/09/20 01:52:06;;;;;;;3.17;1.80;;;;;;;;;;4952034;29;20185;-76
2023/09/20 01:54:33;;;;;;;2.57;1.50;;;;;;;;;;4948918;29;20228;-76
2023/09/20 01:57:00;;;;;;;2.50;1.70;;;;;;;;;;4951978;29;20177;-76
2023/09/20 01:59:26;;;;;;;2.70;1.70;;;;;;;;;;4949361;29;21693;-76
2023/09/20 02:01:52;;;;;;;2.20;1.57;;;;;;;;;;4949476;29;20202;-76
2023/09/20 02:04:20;;;;;;;1.70;1.60;;;;;;;;;;4952583;28;20327;-76
2023/09/20 02:06:47;;;;;;;1.50;1.40;;;;;;;;;;4952496;29;20213;-76
2023/09/20 02:09:16;;;;;;;3.53;1.67;;;;;;;;;;4951742;29;20209;-76
2023/09/20 02:11:43;;;;;;;2.13;1.70;;;;;;;;;;4954367;28;20185;-76
2023/09/20 02:14:11;;;;;;;2.53;1.60;;;;;;;;;;4953059;29;20217;-76
2023/09/20 02:16:38;;;;;;;2.57;1.90;;;;;;;;;;4952870;29;20197;-76
2023/09/20 02:19:05;;;;;;;1.70;1.60;;;;;;;;;;4968631;28;20217;-76
2023/09/20 02:21:31;;;;;;;2.40;1.90;;;;;;;;;;4954133;28;20761;-76
2023/09/20 02:23:58;;;;;;;4.47;1.97;;;;;;;;;;4959215;28;20669;-76
2023/09/20 02:26:24;;;;;;;1.97;1.77;;;;;;;;;;4953017;29;20213;-76
2023/09/20 02:28:51;;;;;;;4.10;1.80;;;;;;;;;;4953854;28;20716;-76
2023/09/20 02:31:18;;;;;;;2.30;2.00;;;;;;;;;;4954083;28;20215;-76
2023/09/20 02:33:44;;;;;;;3.80;2.17;;;;;;;;;;4953731;28;20185;-76
2023/09/20 02:36:11;;;;;;;2.30;1.80;;;;;;;;;;4953836;28;20210;-76
2023/09/20 02:38:38;;;;;;;2.67;1.80;;;;;;;;;;4953599;29;20193;-76
2023/09/20 02:41:05;;;;;;;1.73;1.50;;;;;;;;;;4951425;29;20190;-76
2023/09/20 02:43:31;;;;;;;2.30;1.80;;;;;;;;;;4949455;29;20194;-76
2023/09/20 02:45:59;;;;;;;2.40;1.80;;;;;;;;;;4950178;29;20659;-76
2023/09/20 02:48:28;;;;;;;2.43;1.77;;;;;;;;;;4952228;29;20572;-76
2023/09/20 02:50:54;;;;;;;2.03;1.83;;;;;;;;;;4946395;29;20591;-76
2023/09/20 02:53:20;;;;;;;2.67;1.70;;;;;;;;;;4940717;29;20188;-76
2023/09/20 02:55:46;;;;;;;1.83;1.67;;;;;;;;;;4953667;28;20192;-76
2023/09/20 02:58:13;;;;;;;2.67;1.90;;;;;;;;;;4952072;29;20287;-76
2023/09/20 03:00:46;;;;;;;3.63;1.90;;;;;;;;;;4936153;29;20216;-76
2023/09/20 03:03:15;;;;;;;2.03;1.83;;;;;;;;;;4952411;29;20189;-76
2023/09/20 03:05:41;;;;;;;3.20;1.70;;;;;;;;;;4936495;29;20197;-76
2023/09/20 03:08:14;;;;;;;3.57;2.10;;;;;;;;;;4951610;29;20205;-76
2023/09/20 03:10:44;;;;;;;2.43;2.00;;;;;;;;;;4951400;29;20244;-76
2023/09/20 03:13:16;;;;;;;3.07;1.80;;;;;;;;;;4950133;29;20270;-76
2023/09/20 03:15:45;;;;;;;2.47;1.80;;;;;;;;;;4949551;29;20184;-76
2023/09/20 03:18:14;;;;;;;3.33;1.90;;;;;;;;;;4951320;29;20704;-76
2023/09/20 03:20:48;;;;;;;2.40;1.80;;;;;;;;;;4950256;29;20178;-76
2023/09/20 03:23:14;;;;;;;2.50;1.90;;;;;;;;;;4946215;29;20564;-76
2023/09/20 03:25:40;;;;;;;6.70;1.80;;;;;;;;;;4934856;29;20193;-76
2023/09/20 03:28:27;;;;;;;2.40;1.53;;;;;;;;;;4948718;29;20211;-76
2023/09/20 03:30:56;;;;;;;1.93;1.70;;;;;;;;;;4951473;29;20199;-76
2023/09/20 03:33:23;;;;;;;3.77;1.97;;;;;;;;;;4951283;29;20197;-76
2023/09/20 03:35:51;;;;;;;2.60;2.10;;;;;;;;;;4950493;29;20355;-76
2023/09/20 03:38:19;;;;;;;3.00;2.00;;;;;;;;;;4951295;29;20223;-76
2023/09/20 03:40:45;;;;;;;2.23;2.00;;;;;;;;;;4948872;29;20253;-76
2023/09/20 03:43:11;;;;;;;3.17;2.00;;;;;;;;;;4949746;29;20213;-76
2023/09/20 03:45:45;;;;;;;2.53;1.93;;;;;;;;;;4948845;29;20189;-76
2023/09/20 03:48:11;;;;;;;3.53;2.20;;;;;;;;;;4951177;28;20272;-76
2023/09/20 03:50:43;;;;;;;3.10;2.10;;;;;;;;;;4951173;29;20207;-76
2023/09/20 03:53:10;;;;;;;2.30;2.10;;;;;;;;;;4951171;29;20264;-76
2023/09/20 03:55:37;;;;;;;2.43;2.00;;;;;;;;;;4952445;29;20665;-76
2023/09/20 03:58:04;;;;;;;2.80;2.30;;;;;;;;;;4951190;29;20197;-76
2023/09/20 04:00:31;;;;;;;2.43;1.97;;;;;;;;;;4934853;29;20213;-76
2023/09/20 04:02:58;;;;;;;2.90;2.10;;;;;;;;;;4949169;29;20197;-76
2023/09/20 04:05:26;;;;;;;3.57;2.03;;;;;;;;;;4951285;29;20325;-76
2023/09/20 04:07:52;;;;;;;2.67;1.77;;;;;;;;;;4950666;28;20791;-77
2023/09/20 04:10:18;;;;;;;3.23;2.00;;;;;;;;;;4946649;29;20182;-77
2023/09/20 04:12:49;;;;;;;3.33;1.87;;;;;;;;;;4950374;28;20177;-77
2023/09/20 04:15:17;;;;;;;3.13;2.03;;;;;;;;;;4948203;29;20204;-76
2023/09/20 04:17:44;;;;;;;2.20;2.00;;;;;;;;;;4948475;29;20217;-76
2023/09/20 04:20:12;;;;;;;4.03;1.90;;;;;;;;;;4950587;28;20193;-76
2023/09/20 04:22:40;;;;;;;3.27;2.00;;;;;;;;;;4950487;29;20199;-76
2023/09/20 04:25:10;;;;;;;2.37;2.10;;;;;;;;;;4942123;29;20200;-76
2023/09/20 04:27:36;;;;;;;3.50;2.00;;;;;;;;;;4947573;29;20209;-76
2023/09/20 04:30:03;;;;;;;3.03;2.03;;;;;;;;;;4932029;29;20641;-76
2023/09/20 04:32:32;;;;;;;3.03;1.90;;;;;;;;;;4950373;29;20584;-76
2023/09/20 04:34:59;;;;;;;4.23;2.20;;;;;;;;;;4947883;29;20673;-76
2023/09/20 04:37:25;;;;;;;2.50;1.83;;;;;;;;;;4950104;29;20220;-76
2023/09/20 04:39:52;;;;;;;2.63;2.20;;;;;;;;;;4941863;29;20272;-76
2023/09/20 04:42:19;;;;;;;2.00;1.80;;;;;;;;;;4949281;29;20209;-77
2023/09/20 04:44:46;;;;;;;2.20;1.80;;;;;;;;;;4933340;29;20428;-77
2023/09/20 04:47:14;;;;;;;3.03;2.00;;;;;;;;;;4923802;29;20248;-76
2023/09/20 04:49:40;;;;;;;4.43;2.00;;;;;;;;;;4951025;29;20185;-76
2023/09/20 04:52:10;;;;;;;3.47;2.00;;;;;;;;;;4950083;29;20190;-76
2023/09/20 04:54:37;;;;;;;3.83;2.00;;;;;;;;;;4947803;29;20186;-76
2023/09/20 04:57:06;;;;;;;3.77;2.20;;;;;;;;;;4944149;29;20185;-76
2023/09/20 04:59:33;;;;;;;2.67;2.00;;;;;;;;;;4947818;28;20197;-76
2023/09/20 05:01:59;;;;;;;2.70;2.10;;;;;;;;;;4953503;29;20192;-76
2023/09/20 05:04:26;;;;;;;3.60;2.20;;;;;;;;;;4939046;29;20216;-76
2023/09/20 05:06:55;;;;;;;2.93;2.10;;;;;;;;;;4953672;29;20312;-76
2023/09/20 05:09:22;;;;;;;2.00;1.80;;;;;;;;;;4955179;29;20190;-77
2023/09/20 05:11:49;;;;;;;1.87;1.63;;;;;;;;;;4954375;29;20205;-76
2023/09/20 05:14:17;;;;;;;3.30;1.97;;;;;;;;;;4953671;29;20275;-76
2023/09/20 05:16:43;;;;;;;2.97;2.03;;;;;;;;;;4952455;29;21812;-76
2023/09/20 05:19:11;;;;;;;1.93;1.70;;;;;;;;;;4953447;29;20418;-76
2023/09/20 05:21:37;;;;;;;2.40;2.10;;;;;;;;;;4938076;29;20562;-76
2023/09/20 05:24:04;;;;;;;3.07;2.13;;;;;;;;;;4952581;29;20265;-76
2023/09/20 05:26:30;;;;;;;2.53;1.87;;;;;;;;;;4954409;28;20213;-76
2023/09/20 05:28:58;;;;;;;3.27;2.10;;;;;;;;;;4945488;29;20296;-76
2023/09/20 05:31:26;;;;;;;4.70;2.23;;;;;;;;;;4971120;28;20284;-75
2023/09/20 05:33:55;;;;;;;3.77;2.07;;;;;;;;;;4954324;28;20272;-76
2023/09/20 05:36:23;;;;;;;2.37;2.10;;;;;;;;;;4954450;28;20232;-76
2023/09/20 05:38:49;;;;;;;3.00;1.57;;;;;;;;;;4954110;28;20209;-76
2023/09/20 05:41:18;;;;;;;2.20;2.00;;;;;;;;;;4957992;29;20208;-80
2023/09/20 05:43:44;;;;;;;2.70;1.87;;;;;;;;;;4958341;28;20193;-81
2023/09/20 05:46:13;;;;;;;3.20;2.10;;;;;;;;;;4954371;28;20276;-80
2023/09/20 05:48:39;;;;;;;3.67;2.07;;;;;;;;;;4955432;28;20213;-76
2023/09/20 05:51:05;;;;;;;3.87;2.10;;;;;;;;;;4955326;29;20220;-78
2023/09/20 05:53:33;;;;;;;2.63;2.00;;;;;;;;;;4970838;28;20201;-76
2023/09/20 05:56:08;;;;;;;5.27;2.10;;;;;;;;;;4954298;28;20244;-78
2023/09/20 05:58:34;;;;;;;3.13;1.90;;;;;;;;;;4954036;28;20291;-78
2023/09/20 06:01:00;;;;;;;4.93;2.00;;;;;;;;;;4955854;29;20193;-77
2023/09/20 06:03:26;;;;;;;2.70;2.20;;;;;;;;;;4956514;28;20208;-76
2023/09/20 06:05:54;;;;;;;4.37;2.10;;;;;;;;;;4955588;29;20233;-76
2023/09/20 06:08:20;;;;;;;3.37;2.03;;;;;;;;;;4956000;28;20209;-76
2023/09/20 06:10:46;;;;;;;2.70;2.07;;;;;;;;;;4954310;28;20272;-76
2023/09/20 06:13:13;;;;;;;2.27;1.90;;;;;;;;;;4955123;28;20598;-76
2023/09/20 06:15:39;;;;;;;5.93;2.00;;;;;;;;;;4956028;28;20185;-75
2023/09/20 06:18:08;;;;;;;2.40;1.80;;;;;;;;;;4956175;28;20689;-76
2023/09/20 06:20:36;;;;;;;2.80;2.00;;;;;;;;;;4956505;29;20213;-76
2023/09/20 06:23:03;;;;;;;2.63;1.97;;;;;;;;;;4956037;28;20189;-76
2023/09/20 06:25:29;;;;;;;2.57;2.00;;;;;;;;;;4955838;28;20229;-76
2023/09/20 06:27:55;;;;;;;5.00;2.00;;;;;;;;;;4953681;29;20703;-76
2023/09/20 06:30:24;;;;;;;3.80;1.90;;;;;;;;;;4954091;29;20215;-76
2023/09/20 06:32:50;;;;;;;2.63;1.87;;;;;;;;;;4937192;29;20268;-76
2023/09/20 06:35:22;;;;;;;2.77;1.90;;;;;;;;;;4947555;28;20240;-76
2023/09/20 06:37:51;;;;;;;3.07;2.20;;;;;;;;;;4948596;28;20208;-76
2023/09/20 06:40:26;;;;;;;3.67;1.67;;;;;;;;;;4949682;29;20199;-76
2023/09/20 06:42:52;;;;;;;3.27;2.20;;;;;;;;;;4949156;29;20188;-75
2023/09/20 06:45:24;;;;;;;2.67;1.90;;;;;;;;;;4951235;28;20189;-75
2023/09/20 06:47:50;;;;;;;2.73;1.90;;;;;;;;;;4950490;29;20816;-75
2023/09/20 06:50:17;;;;;;;2.63;2.03;;;;;;;;;;4950074;28;20562;-75
2023/09/20 06:52:43;;;;;;;1.93;1.73;;;;;;;;;;4950866;28;20230;-75
2023/09/20 06:55:17;;;;;;;2.77;1.83;;;;;;;;;;4950716;29;20189;-75
2023/09/20 06:57:44;;;;;;;5.10;2.03;;;;;;;;;;4964233;28;20805;-75
2023/09/20 07:00:26;;;;;;;2.17;1.83;;;;;;;;;;4949118;29;20615;-75
2023/09/20 07:02:56;;;;;;;2.00;1.80;;;;;;;;;;4949873;29;20199;-75
2023/09/20 07:05:24;;;;;;;2.57;2.00;;;;;;;;;;4965820;28;20248;-75
2023/09/20 07:07:51;;;;;;;1.83;1.70;;;;;;;;;;4949273;28;20276;-75
2023/09/20 07:10:17;;;;;;;2.67;2.00;;;;;;;;;;4949457;29;20239;-75
2023/09/20 07:12:46;;;;;;;3.20;2.00;;;;;;;;;;4950495;28;20260;-75
2023/09/20 07:15:16;;;;;;;3.87;1.80;;;;;;;;;;4950546;29;20653;-75
2023/09/20 07:17:43;;;;;;;3.70;2.00;;;;;;;;;;4950454;29;20220;-75
2023/09/20 07:20:14;;;;;;;2.23;1.93;;;;;;;;;;4951662;29;20197;-75
2023/09/20 07:22:42;;;;;;;2.37;1.80;;;;;;;;;;4950245;28;20197;-75
2023/09/20 07:25:16;;;;;;;2.40;1.80;;;;;;;;;;4951862;29;20200;-75
2023/09/20 07:27:42;;;;;;;3.03;1.90;;;;;;;;;;4946928;29;20256;-75
2023/09/20 07:30:14;;;;;;;2.60;1.87;;;;;;;;;;4951489;29;20650;-75
2023/09/20 07:32:41;;;;;;;4.30;1.90;;;;;;;;;;4964938;28;20197;-75
2023/09/20 07:35:19;;;;;;;3.83;1.77;;;;;;;;;;4949755;29;20192;-75
2023/09/20 07:37:48;;;;;;;2.43;1.80;;;;;;;;;;4951539;29;20805;-75
2023/09/20 07:40:15;;;;;;;5.63;1.77;;;;;;;;;;4921172;29;20208;-75
2023/09/20 07:42:42;;;;;;;3.13;2.00;;;;;;;;;;4949814;29;20765;-75
2023/09/20 07:45:13;;;;;;;2.67;1.70;;;;;;;;;;4954454;28;20192;-75
2023/09/20 07:47:43;;;;;;;2.93;1.57;;;;;;;;;;4951159;28;20771;-76
2023/09/20 07:50:14;;;;;;;2.53;1.73;;;;;;;;;;4950500;28;20190;-76
2023/09/20 07:52:44;;;;;;;1.97;1.70;;;;;;;;;;4950397;29;20208;-75
2023/09/20 07:55:11;;;;;;;2.63;1.60;;;;;;;;;;4951616;28;20193;-75
2023/09/20 07:57:38;;;;;;;2.00;1.60;;;;;;;;;;4951116;28;20615;-75
2023/09/20 08:00:10;;;;;;;4.23;1.70;;;;;;;;;;4949399;29;20196;-75
2023/09/20 08:02:38;;;;;;;1.93;1.70;;;;;;;;;;4949578;28;20248;-75
2023/09/20 08:05:05;;;;;;;2.40;1.57;;;;;;;;;;4949942;29;20189;-75
2023/09/20 08:07:32;;;;;;;2.33;1.60;;;;;;;;;;4950893;29;20232;-75
2023/09/20 08:09:58;;;;;;;2.20;1.77;;;;;;;;;;4948969;29;20265;-75
2023/09/20 08:12:24;;;;;;;2.97;1.73;;;;;;;;;;4947709;28;20192;-75
2023/09/20 08:14:51;;;;;;;2.77;1.87;;;;;;;;;;4950194;29;20189;-75
2023/09/20 08:20:06;;;;;;;3.33;1.83;;;;;;;;;;4949365;29;20189;-75
2023/09/20 09:01:07;;;;;;;4.07;1.73;;;;;;;;;;4947401;29;20189;-77
2023/09/20 09:03:34;;;;;;;2.37;1.60;;;;;;;;;;4948493;28;20182;-77
2023/09/20 09:06:02;;;;;;;2.20;1.80;;;;;;;;;;4963885;28;20176;-76
2023/09/20 09:08:28;;;;;;;2.10;1.77;;;;;;;;;;4948493;29;20222;-77
2023/09/20 09:10:54;;;;;;;2.10;1.80;;;;;;;;;;4946693;28;20189;-77
2023/09/20 09:13:21;;;;;;;4.40;1.70;;;;;;;;;;4949274;28;20280;-77
2023/09/20 09:15:47;;;;;;;3.43;1.63;;;;;;;;;;4944528;28;20264;-77
2023/09/20 09:18:18;;;;;;;2.50;1.83;;;;;;;;;;4948750;28;20219;-77
2023/09/20 09:20:49;;;;;;;1.90;1.70;;;;;;;;;;4933159;29;20240;-77
2023/09/20 09:23:30;;;;;;;3.80;1.70;;;;;;;;;;4942001;29;20229;-77
2023/09/20 09:25:56;;;;;;;2.60;1.83;;;;;;;;;;4950048;29;20177;-77
2023/09/20 09:28:26;;;;;;;4.80;2.03;;;;;;;;;;4950603;29;20287;-77
2023/09/20 09:30:54;;;;;;;4.37;1.90;;;;;;;;;;4948421;28;20185;-77
2023/09/20 09:33:21;;;;;;;2.67;1.70;;;;;;;;;;4949915;28;20193;-77
2023/09/20 09:35:48;;;;;;;2.73;1.60;;;;;;;;;;4948685;28;20547;-76
2023/09/20 09:38:23;;;;;;;1.77;1.57;;;;;;;;;;4948931;28;20256;-76
2023/09/20 09:40:53;;;;;;;1.93;1.70;;;;;;;;;;4949045;29;20240;-77
2023/09/20 09:43:20;;;;;;;2.83;1.60;;;;;;;;;;4962322;28;20177;-77
2023/09/20 09:45:49;;;;;;;3.67;1.60;;;;;;;;;;4951580;28;20185;-76
2023/09/20 09:48:16;;;;;;;3.27;2.37;;;;;;;;;;4945856;29;20207;-77
2023/09/20 09:50:46;;;;;;;6.03;2.70;;;;;;;;;;4952690;29;20327;-77
2023/09/20 09:53:15;;;;;;;2.47;2.00;;;;;;;;;;4952626;29;20186;-77
2023/09/20 09:55:41;;;;;;;4.07;2.30;;;;;;;;;;4951456;29;20714;-80
2023/09/20 09:58:12;;;;;;;3.73;2.33;;;;;;;;;;4936907;29;20268;-76
2023/09/20 10:00:40;;;;;;;3.37;1.83;;;;;;;;;;4954235;28;20538;-78
2023/09/20 10:03:18;;;;;;;3.37;2.17;;;;;;;;;;4954031;28;20532;-75
2023/09/20 10:05:46;;;;;;;2.57;1.93;;;;;;;;;;4951233;29;20183;-79
2023/09/20 10:08:13;;;;;;;5.23;2.10;;;;;;;;;;4970199;28;20301;-81
2023/09/20 10:10:41;;;;;;;4.07;2.50;;;;;;;;;;4951305;29;20249;-77
2023/09/20 10:13:08;;;;;;;4.47;2.10;;;;;;;;;;4956675;28;20887;-82
2023/09/20 10:15:35;;;;;;;3.37;1.97;;;;;;;;;;4950638;28;20179;-76
2023/09/20 10:18:02;;;;;;;3.20;1.77;;;;;;;;;;4955989;28;20302;-83
2023/09/20 10:20:48;;;;;;;6.67;2.20;;;;;;;;;;4953804;28;20181;-78
2023/09/20 10:23:16;;;;;;;4.90;2.50;;;;;;;;;;4955580;29;20193;-77
2023/09/20 10:25:48;;;;;;;2.60;2.20;;;;;;;;;;4955169;29;20214;-81
2023/09/20 10:28:17;;;;;;;2.13;1.80;;;;;;;;;;4971275;28;20299;-80
2023/09/20 10:31:03;;;;;;;2.70;1.70;;;;;;;;;;4933408;29;20191;-80
2023/09/20 10:33:44;;;;;;;6.90;1.90;;;;;;;;;;4952190;29;20352;-80
2023/09/20 10:36:11;;;;;;;2.17;1.87;;;;;;;;;;4952036;28;20282;-80
2023/09/20 10:38:40;;;;;;;2.23;1.70;;;;;;;;;;4955124;28;20219;-81
2023/09/20 10:41:10;;;;;;;2.73;1.70;;;;;;;;;;4955989;28;20189;-80
2023/09/20 10:43:36;;;;;;;2.83;1.90;;;;;;;;;;4955022;29;20564;-81
2023/09/20 10:46:12;;;;;;;4.20;1.90;;;;;;;;;;4955575;28;20197;-80
2023/09/20 10:48:49;;;;;;;6.07;1.80;;;;;;;;;;4952789;29;20814;-80
2023/09/20 10:51:34;;;;;;;1.90;1.47;;;;;;;;;;4953619;29;20268;-80
2023/09/20 10:54:02;;;;;;;3.60;1.73;;;;;;;;;;4954669;29;20234;-83
2023/09/20 10:56:54;;;;;;;1.73;1.50;;;;;;;;;;4951167;28;20189;-82
2023/09/20 10:59:25;;;;;;;2.13;1.40;;;;;;;;;;4949644;28;20193;-82
2023/09/20 11:01:52;;;;;;;2.77;1.43;;;;;;;;;;4936851;29;20221;-83
2023/09/20 11:04:18;;;;;;;2.67;1.70;;;;;;;;;;4951479;29;20185;-82
2023/09/20 11:06:45;;;;;;;2.73;1.60;;;;;;;;;;4936052;29;20302;-82
2023/09/20 11:09:15;;;;;;;2.77;1.53;;;;;;;;;;4952764;29;20267;-80
2023/09/20 11:11:42;;;;;;;2.53;1.40;;;;;;;;;;4953242;28;20179;-83
2023/09/20 11:14:08;;;;;;;2.30;1.70;;;;;;;;;;4953412;28;20661;-79
2023/09/20 11:16:36;;;;;;;6.10;2.00;;;;;;;;;;4932622;29;20258;-78
2023/09/20 11:19:03;;;;;;;2.00;1.40;;;;;;;;;;4951559;29;20219;-78
2023/09/20 11:21:29;;;;;;;2.83;1.57;;;;;;;;;;4952906;28;20193;-78
2023/09/20 11:23:55;;;;;;;2.77;1.50;;;;;;;;;;4952263;29;20189;-78
2023/09/20 11:26:28;;;;;;;1.60;1.50;;;;;;;;;;4953498;29;20213;-78
2023/09/20 11:28:55;;;;;;;3.27;1.60;;;;;;;;;;4952470;28;20220;-78
2023/09/20 11:31:27;;;;;;;3.70;1.73;;;;;;;;;;4952649;28;20681;-78
2023/09/20 11:33:58;;;;;;;2.97;1.70;;;;;;;;;;4953284;29;20190;-78
2023/09/20 11:36:26;;;;;;;2.20;1.50;;;;;;;;;;4950365;28;20196;-78
2023/09/20 11:38:52;;;;;;;5.47;1.50;;;;;;;;;;4951939;29;20599;-78
2023/09/20 11:41:18;;;;;;;2.87;1.67;;;;;;;;;;4952567;28;20200;-78
2023/09/20 11:43:47;;;;;;;2.23;1.60;;;;;;;;;;4953055;28;20189;-78
2023/09/20 11:46:15;;;;;;;2.50;1.60;;;;;;;;;;4952292;28;20221;-78
2023/09/20 11:48:43;;;;;;;2.87;1.53;;;;;;;;;;4949652;29;20385;-78
2023/09/20 11:51:10;;;;;;;3.63;1.60;;;;;;;;;;4951179;28;20631;-78
2023/09/20 11:53:36;;;;;;;3.10;1.37;;;;;;;;;;4953402;29;20190;-78
2023/09/20 11:56:03;;;;;;;4.73;1.50;;;;;;;;;;4944431;29;20190;-78
2023/09/20 11:58:33;;;;;;;2.27;1.57;;;;;;;;;;4952260;28;20326;-78
2023/09/20 12:01:03;;;;;;;2.83;1.70;;;;;;;;;;4953467;28;20268;-78
2023/09/20 12:03:30;;;;;;;2.10;1.40;;;;;;;;;;4951304;28;20189;-78
2023/09/20 12:05:56;;;;;;;3.30;1.60;;;;;;;;;;4951575;29;20280;-79
2023/09/20 12:08:30;;;;;;;2.27;1.57;;;;;;;;;;4955088;28;20196;-79
2023/09/20 12:10:56;;;;;;;4.70;1.60;;;;;;;;;;4950736;29;20658;-79
2023/09/20 12:13:23;;;;;;;2.63;1.60;;;;;;;;;;4954024;29;20209;-78
2023/09/20 12:15:50;;;;;;;2.77;2.00;;;;;;;;;;4945787;29;20190;-78
2023/09/20 12:18:16;;;;;;;1.90;1.53;;;;;;;;;;4945951;29;20220;-78
2023/09/20 12:20:42;;;;;;;2.70;1.60;;;;;;;;;;4950349;29;20204;-78
2023/09/20 12:23:09;;;;;;;1.97;1.57;;;;;;;;;;4952240;29;20208;-78
2023/09/20 12:25:35;;;;;;;1.63;1.47;;;;;;;;;;4946052;28;20194;-78
2023/09/20 12:28:03;;;;;;;2.37;1.70;;;;;;;;;;4949450;29;20922;-78
2023/09/20 12:30:29;;;;;;;2.00;1.50;;;;;;;;;;4951767;28;20179;-78
2023/09/20 12:32:56;;;;;;;3.57;1.80;;;;;;;;;;4950605;29;20189;-78
2023/09/20 12:35:23;;;;;;;4.87;1.70;;;;;;;;;;4949419;28;20664;-78
2023/09/20 12:37:49;;;;;;;5.13;2.00;;;;;;;;;;4951656;28;20215;-78
2023/09/20 12:40:17;;;;;;;2.80;1.73;;;;;;;;;;4952841;28;20187;-78
2023/09/20 12:42:44;;;;;;;2.10;1.70;;;;;;;;;;4952795;28;20192;-79
2023/09/20 12:45:10;;;;;;;3.10;1.90;;;;;;;;;;4950626;28;20239;-78
2023/09/20 12:47:41;;;;;;;3.10;1.60;;;;;;;;;;4950648;29;20223;-78
2023/09/20 12:50:08;;;;;;;2.10;1.40;;;;;;;;;;4951740;28;20182;-78
2023/09/20 12:52:34;;;;;;;1.60;1.50;;;;;;;;;;4952073;28;20768;-78
2023/09/20 12:55:01;;;;;;;1.70;1.40;;;;;;;;;;4947843;29;20268;-78
2023/09/20 12:57:28;;;;;;;2.40;1.63;;;;;;;;;;4951587;28;20301;-78
2023/09/20 12:59:56;;;;;;;4.13;1.80;;;;;;;;;;4952294;28;20593;-78
2023/09/20 13:02:27;;;;;;;1.43;1.33;;;;;;;;;;4967024;28;20182;-78
2023/09/20 13:04:59;;;;;;;1.70;1.60;;;;;;;;;;4948787;28;20504;-79
2023/09/20 13:07:29;;;;;;;1.83;1.50;;;;;;;;;;4949967;28;20209;-78
2023/09/20 13:09:57;;;;;;;2.63;1.50;;;;;;;;;;4948594;28;20937;-78
2023/09/20 13:12:23;;;;;;;1.53;1.40;;;;;;;;;;4949336;28;20175;-78
2023/09/20 13:14:50;;;;;;;3.07;1.60;;;;;;;;;;4952495;28;20197;-78
2023/09/20 13:17:16;;;;;;;1.93;1.50;;;;;;;;;;4946288;29;20225;-79
2023/09/20 13:19:43;;;;;;;1.83;1.43;;;;;;;;;;4968301;28;20194;-79
2023/09/20 13:22:09;;;;;;;1.40;1.30;;;;;;;;;;4955357;29;20192;-78
2023/09/20 13:24:39;;;;;;;1.40;1.30;;;;;;;;;;4957120;28;20688;-79
2023/09/20 13:27:05;;;;;;;2.90;1.60;;;;;;;;;;4957061;28;20822;-79
2023/09/20 13:29:31;;;;;;;3.13;1.40;;;;;;;;;;4956727;29;20196;-78
2023/09/20 13:31:57;;;;;;;2.33;1.43;;;;;;;;;;4955462;29;20276;-79
2023/09/20 13:34:25;;;;;;;1.67;1.50;;;;;;;;;;4957467;28;20188;-79
2023/09/20 13:36:51;;;;;;;1.67;1.40;;;;;;;;;;4971606;28;20196;-79
2023/09/20 13:39:18;;;;;;;2.17;1.50;;;;;;;;;;4971884;28;20209;-78
2023/09/20 13:41:44;;;;;;;1.57;1.33;;;;;;;;;;4959000;28;20657;-79
2023/09/20 13:44:11;;;;;;;1.80;1.40;;;;;;;;;;4958699;29;20352;-79
2023/09/20 13:46:38;;;;;;;1.40;1.30;;;;;;;;;;4958442;29;20213;-78
2023/09/20 13:49:10;;;;;;;4.87;1.63;;;;;;;;;;4955145;28;20201;-79
2023/09/20 13:51:38;;;;;;;2.20;1.40;;;;;;;;;;4957997;28;20200;-79
2023/09/20 13:54:06;;;;;;;2.50;1.50;;;;;;;;;;4971467;28;20190;-79
2023/09/20 13:56:38;;;;;;;1.77;1.40;;;;;;;;;;4957248;28;20195;-79
2023/09/20 13:59:05;;;;;;;2.23;1.43;;;;;;;;;;4954604;29;20856;-79
2023/09/20 14:01:32;;;;;;;2.13;1.37;;;;;;;;;;4955924;29;20186;-79
2023/09/20 14:03:58;;;;;;;2.20;1.50;;;;;;;;;;4955806;28;20274;-79
2023/09/20 14:06:25;;;;;;;2.10;1.63;;;;;;;;;;4952983;28;20582;-79
2023/09/20 14:08:51;;;;;;;2.20;1.40;;;;;;;;;;4954473;29;20306;-79
2023/09/20 14:11:18;;;;;;;1.60;1.50;;;;;;;;;;4955997;28;20183;-79
2023/09/20 14:13:44;;;;;;;1.47;1.37;;;;;;;;;;4956218;28;20581;-79
2023/09/20 14:16:10;;;;;;;1.63;1.53;;;;;;;;;;4951739;29;20245;-79
2023/09/20 14:18:36;;;;;;;1.57;1.43;;;;;;;;;;4954736;28;20228;-79
2023/09/20 14:21:03;;;;;;;1.73;1.60;;;;;;;;;;4954593;28;20278;-79
2023/09/20 14:23:30;;;;;;;1.67;1.50;;;;;;;;;;4954529;28;20309;-79
2023/09/20 14:25:56;;;;;;;2.13;1.77;;;;;;;;;;4954454;28;20215;-79
2023/09/20 14:28:22;;;;;;;1.50;1.40;;;;;;;;;;4956296;28;20214;-79
2023/09/20 14:30:48;;;;;;;2.07;1.87;;;;;;;;;;4953226;28;20287;-79
2023/09/20 14:33:15;;;;;;;2.60;1.57;;;;;;;;;;4954584;28;20264;-79
2023/09/20 14:35:41;;;;;;;2.30;1.63;;;;;;;;;;4953818;29;20220;-79
2023/09/20 14:38:08;;;;;;;2.00;1.67;;;;;;;;;;4954810;28;20585;-79
2023/09/20 14:40:34;;;;;;;3.57;1.50;;;;;;;;;;4954338;29;20179;-79
2023/09/20 14:43:00;;;;;;;1.70;1.60;;;;;;;;;;4952280;29;20223;-79
2023/09/20 14:45:29;;;;;;;1.67;1.50;;;;;;;;;;4954997;29;20266;-79
2023/09/20 14:47:56;;;;;;;1.80;1.30;;;;;;;;;;4955704;28;20280;-79
2023/09/20 14:50:23;;;;;;;2.30;1.63;;;;;;;;;;4955137;28;20231;-79
2023/09/20 14:52:49;;;;;;;2.67;1.70;;;;;;;;;;4955771;29;20217;-79
2023/09/20 14:55:18;;;;;;;1.80;1.60;;;;;;;;;;4946754;29;20677;-78
2023/09/20 14:57:47;;;;;;;1.73;1.40;;;;;;;;;;4953716;28;20241;-76
2023/09/20 15:00:18;;;;;;;2.03;1.80;;;;;;;;;;4948873;28;20184;-78
2023/09/20 15:02:48;;;;;;;1.87;1.70;;;;;;;;;;4952074;29;20183;-76
2023/09/20 15:05:14;;;;;;;2.73;1.70;;;;;;;;;;4951573;28;20223;-76
2023/09/20 15:07:42;;;;;;;2.97;1.90;;;;;;;;;;4952493;28;20860;-76
2023/09/20 15:10:11;;;;;;;1.50;1.40;;;;;;;;;;4948988;29;20211;-76
2023/09/20 15:12:38;;;;;;;1.73;1.63;;;;;;;;;;4950068;29;20181;-76
2023/09/20 15:15:05;;;;;;;3.27;1.90;;;;;;;;;;4951231;29;20284;-80
2023/09/20 15:17:31;;;;;;;1.70;1.60;;;;;;;;;;4947268;28;20227;-77
2023/09/20 15:19:57;;;;;;;2.20;1.80;;;;;;;;;;4951254;29;20204;-75
2023/09/20 15:22:29;;;;;;;2.73;1.87;;;;;;;;;;4951982;29;20194;-78
2023/09/20 15:24:56;;;;;;;2.90;1.70;;;;;;;;;;4952077;28;20184;-78
2023/09/20 15:27:23;;;;;;;2.77;1.90;;;;;;;;;;4952363;29;20213;-80
2023/09/20 15:29:49;;;;;;;2.20;1.80;;;;;;;;;;4953573;29;20193;-77